Aeroporto do Galeao, Brazil
Current Conditions -  °F | °C
As of 11:00 AM on Monday 24 Nov 2014 (Local Time) from SBSV Reporting Station
Few Clouds Few Clouds  
Wind Chill: 82°   Ceiling: Unl
Heat Index: 86°   Visibility: 6mi
Dew Point: 70°   Wind: 16mph
Humidity: 66%   Direction: 70°ENE
Pressure: 29.97"   Gusts: NA
Location:  13.39°S, 39.03°W
Report Text: SBSV 241400Z 07014KT 9999 FEW020 28/21 Q1015
Loading
Personal Weather Stations






























Interactive Weather Map New forecast layout! Learn more

10-Day Weather Forecast

Advertisements
Track Severe Weather on mobile